createdAt,value
2022-12-25T00:01:52.092Z,100804.19
2022-12-25T00:03:57.784Z,100817.22
2022-12-25T00:06:00.723Z,100821.50
2022-12-25T00:08:03.547Z,100817.97
2022-12-25T00:10:09.609Z,100819.78
2022-12-25T00:12:12.426Z,100824.06
2022-12-25T00:14:15.278Z,100819.81
2022-12-25T00:16:21.719Z,100807.72
2022-12-25T00:18:24.774Z,100804.22
2022-12-25T00:20:27.568Z,100801.63
2022-12-25T00:22:30.605Z,100796.44
2022-12-25T00:24:33.475Z,100795.63
2022-12-25T00:26:37.615Z,100793.97
2022-12-25T00:28:40.881Z,100792.22
2022-12-25T00:30:43.700Z,100796.53
2022-12-25T00:32:46.451Z,100793.97
2022-12-25T00:34:49.326Z,100795.69
2022-12-25T00:36:52.339Z,100787.84
2022-12-25T00:38:55.235Z,100787.88
2022-12-25T00:40:58.018Z,100779.13
2022-12-25T00:43:01.215Z,100780.00
2022-12-25T00:45:05.728Z,100780.06
2022-12-25T00:47:08.683Z,100786.03
2022-12-25T00:49:12.430Z,100779.13
2022-12-25T00:51:15.262Z,100780.00
2022-12-25T00:53:18.070Z,100777.41
2022-12-25T00:55:20.811Z,100776.50
2022-12-25T00:57:23.525Z,100786.91
2022-12-25T00:59:27.619Z,100792.09
2022-12-25T01:01:30.740Z,100783.41
2022-12-25T01:03:33.689Z,100784.31
2022-12-25T01:05:36.501Z,100791.22
2022-12-25T01:07:39.333Z,100786.91
2022-12-25T01:10:00.188Z,100798.16
2022-12-25T01:12:03.083Z,100798.16
2022-12-25T01:14:05.914Z,100796.44
2022-12-25T01:16:12.426Z,100804.22
2022-12-25T01:18:15.349Z,100810.28
2022-12-25T01:20:19.111Z,100809.47
2022-12-25T01:22:22.112Z,100806.00
2022-12-25T01:24:24.876Z,100812.09
2022-12-25T01:26:28.762Z,100803.44
2022-12-25T01:28:31.565Z,100800.81
2022-12-25T01:30:35.366Z,100800.78
2022-12-25T01:32:39.538Z,100813.78
2022-12-25T01:34:42.310Z,100814.59
2022-12-25T01:36:45.083Z,100815.53
2022-12-25T01:38:48.472Z,100828.53
2022-12-25T01:40:51.280Z,100824.19
2022-12-25T01:42:54.199Z,100831.28
2022-12-25T01:45:37.245Z,100828.63
2022-12-25T01:47:41.439Z,100826.06
2022-12-25T01:49:47.599Z,100816.50
2022-12-25T01:51:55.503Z,100819.91
2022-12-25T01:54:00.841Z,100819.88
2022-12-25T01:56:08.031Z,100820.72
2022-12-25T01:58:10.951Z,100815.53
2022-12-25T02:00:16.148Z,100804.31
2022-12-25T02:02:19.317Z,100802.53
2022-12-25T02:04:38.480Z,100803.44
2022-12-25T02:06:42.902Z,100799.75
2022-12-25T02:08:45.858Z,100806.66
2022-12-25T02:10:49.227Z,100803.19
2022-12-25T02:12:52.600Z,100794.56
2022-12-25T02:15:04.814Z,100791.06
2022-12-25T02:17:14.331Z,100788.47
2022-12-25T02:19:32.958Z,100780.66
2022-12-25T02:22:01.026Z,100784.16
2022-12-25T02:24:28.907Z,100789.31
2022-12-25T02:26:58.483Z,100778.00
2022-12-25T02:29:10.743Z,100770.16
2022-12-25T02:31:18.712Z,100771.03
2022-12-25T02:33:46.954Z,100768.41
2022-12-25T02:35:54.877Z,100770.97
2022-12-25T02:38:04.140Z,100772.66
2022-12-25T02:40:15.076Z,100774.47
2022-12-25T02:42:45.167Z,100777.94
2022-12-25T02:45:10.372Z,100775.34
2022-12-25T02:47:30.897Z,100768.44
2022-12-25T02:49:52.723Z,100766.69
2022-12-25T02:52:23.862Z,100764.06
2022-12-25T02:54:57.942Z,100754.56
2022-12-25T02:57:22.066Z,100749.28
2022-12-25T02:59:42.782Z,100745.75
2022-12-25T03:02:05.011Z,100742.34
2022-12-25T03:04:29.894Z,100738.81
2022-12-25T03:06:46.890Z,100731.00
2022-12-25T03:08:54.890Z,100733.59
2022-12-25T03:11:20.098Z,100732.78
2022-12-25T03:13:27.290Z,100736.31
2022-12-25T03:15:47.748Z,100731.81
2022-12-25T03:17:51.011Z,100726.47
2022-12-25T03:20:13.485Z,100722.97
2022-12-25T03:22:38.248Z,100723.91
2022-12-25T03:24:59.596Z,100716.22
2022-12-25T03:27:02.499Z,100710.16
2022-12-25T03:29:05.353Z,100712.69
2022-12-25T03:31:14.973Z,100713.50
2022-12-25T03:33:44.490Z,100711.75
2022-12-25T03:36:02.569Z,100719.47
2022-12-25T03:38:46.073Z,100721.16
2022-12-25T03:41:16.644Z,100717.56
2022-12-25T03:43:57.630Z,100724.56
2022-12-25T03:46:24.467Z,100728.06
2022-12-25T03:48:49.757Z,100737.56
2022-12-25T03:51:16.267Z,100724.66
2022-12-25T03:53:41.139Z,100720.47
2022-12-25T03:56:02.336Z,100722.97
2022-12-25T03:58:22.776Z,100713.47
2022-12-25T04:00:43.078Z,100709.19
2022-12-25T04:02:59.899Z,100704.19
2022-12-25T04:05:22.912Z,100712.00
2022-12-25T04:07:43.553Z,100701.59
2022-12-25T04:10:03.919Z,100701.59
2022-12-25T04:12:25.156Z,100693.78
2022-12-25T04:14:45.394Z,100686.88
2022-12-25T04:17:05.723Z,100696.31
2022-12-25T04:19:27.998Z,100685.97
2022-12-25T04:21:49.579Z,100694.69
2022-12-25T04:24:09.888Z,100687.78
2022-12-25T04:26:30.267Z,100691.28
2022-12-25T04:28:50.661Z,100699.09
2022-12-25T04:31:11.095Z,100697.38
2022-12-25T04:33:31.798Z,100699.13
2022-12-25T04:35:51.897Z,100704.31
2022-12-25T04:37:56.154Z,100704.34
2022-12-25T04:39:58.959Z,100710.44
2022-12-25T04:42:01.804Z,100700.97
2022-12-25T04:44:04.925Z,100703.53
2022-12-25T04:46:07.774Z,100703.53
2022-12-25T04:48:10.602Z,100688.75
2022-12-25T04:50:13.699Z,100688.75
2022-12-25T04:52:16.486Z,100696.53
2022-12-25T04:54:20.691Z,100692.31
2022-12-25T04:56:24.252Z,100697.47
2022-12-25T04:58:27.008Z,100692.34
2022-12-25T05:00:30.078Z,100689.72
2022-12-25T05:02:33.495Z,100683.69
2022-12-25T05:04:36.542Z,100687.19
2022-12-25T05:06:40.185Z,100683.75
2022-12-25T05:08:43.011Z,100693.31
2022-12-25T05:10:47.254Z,100686.41
2022-12-25T05:12:50.092Z,100688.94
2022-12-25T05:14:52.956Z,100684.66
2022-12-25T05:16:55.817Z,100683.72
2022-12-25T05:18:58.656Z,100688.91
2022-12-25T05:21:01.469Z,100692.34
2022-12-25T05:23:04.292Z,100688.88
2022-12-25T05:25:08.047Z,100690.56
2022-12-25T05:27:12.219Z,100686.28
2022-12-25T05:29:14.997Z,100671.50
2022-12-25T05:31:18.441Z,100666.28
2022-12-25T05:33:21.296Z,100668.03
2022-12-25T05:35:24.183Z,100664.56
2022-12-25T05:37:26.960Z,100674.16
2022-12-25T05:39:30.177Z,100668.97
2022-12-25T05:41:34.730Z,100669.00
2022-12-25T05:43:38.997Z,100667.06
2022-12-25T05:45:41.783Z,100667.06
2022-12-25T05:47:44.580Z,100664.56
2022-12-25T05:49:47.392Z,100659.47
2022-12-25T05:51:50.243Z,100663.84
2022-12-25T05:53:53.177Z,100665.56
2022-12-25T05:55:56.012Z,100676.78
2022-12-25T05:57:58.819Z,100675.91
2022-12-25T06:00:03.009Z,100680.28
2022-12-25T06:02:15.411Z,100681.16
2022-12-25T06:04:18.328Z,100679.50
2022-12-25T06:06:21.227Z,100682.09
2022-12-25T06:08:23.981Z,100685.47
2022-12-25T06:10:26.760Z,100673.41
2022-12-25T06:12:29.586Z,100672.59
2022-12-25T06:14:32.457Z,100669.09
2022-12-25T06:16:38.363Z,100668.28
2022-12-25T06:18:44.693Z,100659.50
2022-12-25T06:20:48.085Z,100668.19
2022-12-25T06:22:50.890Z,100658.66
2022-12-25T06:24:54.303Z,100659.53
2022-12-25T06:26:57.105Z,100656.09
2022-12-25T06:28:59.920Z,100655.25
2022-12-25T06:31:07.446Z,100646.53
2022-12-25T06:33:11.869Z,100646.53
2022-12-25T06:35:14.751Z,100644.81
2022-12-25T06:37:17.565Z,100650.03
2022-12-25T06:39:21.372Z,100650.00
2022-12-25T06:41:26.179Z,100646.50
2022-12-25T06:43:28.792Z,100650.69
2022-12-25T06:45:31.664Z,100653.28
2022-12-25T06:47:34.591Z,100648.09
2022-12-25T06:49:38.802Z,100649.78
2022-12-25T06:51:41.670Z,100648.09
2022-12-25T06:53:44.462Z,100645.47
2022-12-25T06:55:47.455Z,100648.06
2022-12-25T06:57:50.225Z,100655.00
2022-12-25T06:59:55.385Z,100655.88
2022-12-25T07:01:58.801Z,100647.22
2022-12-25T07:04:06.659Z,100647.31
2022-12-25T07:06:10.729Z,100656.78
2022-12-25T07:08:13.589Z,100655.94
2022-12-25T07:10:16.546Z,100648.97
2022-12-25T07:12:21.737Z,100644.72
2022-12-25T07:14:24.885Z,100646.44
2022-12-25T07:16:27.927Z,100639.50
2022-12-25T07:18:31.398Z,100629.94
2022-12-25T07:20:34.179Z,100623.00
2022-12-25T07:22:38.329Z,100616.84
2022-12-25T07:24:41.257Z,100612.50
2022-12-25T07:26:44.096Z,100621.13
2022-12-25T07:28:47.005Z,100612.50
2022-12-25T07:30:50.239Z,100617.69
2022-12-25T07:32:52.995Z,100619.50
2022-12-25T07:34:55.913Z,100616.03
2022-12-25T07:36:58.795Z,100604.84
2022-12-25T07:39:02.893Z,100631.72
2022-12-25T07:41:08.830Z,100622.13
2022-12-25T07:43:11.573Z,100623.88
2022-12-25T07:45:14.485Z,100620.41
2022-12-25T07:47:17.467Z,100615.25
2022-12-25T07:49:20.309Z,100617.88
2022-12-25T07:51:23.513Z,100622.16
2022-12-25T07:53:27.135Z,100626.56
2022-12-25T07:55:31.307Z,100630.88
2022-12-25T07:57:36.336Z,100652.50
2022-12-25T07:59:39.075Z,100657.47
2022-12-25T08:01:42.021Z,100666.00
2022-12-25T08:03:49.270Z,100655.66
2022-12-25T08:05:52.480Z,100646.22
2022-12-25T08:07:58.076Z,100639.38
2022-12-25T08:10:01.099Z,100633.47
2022-12-25T08:12:05.497Z,100625.78
2022-12-25T08:14:09.239Z,100630.94
2022-12-25T08:16:15.252Z,100617.13
2022-12-25T08:18:22.247Z,100617.03
2022-12-25T08:20:28.906Z,100610.09
2022-12-25T08:22:31.672Z,100605.81
2022-12-25T08:24:34.601Z,100614.41
2022-12-25T08:26:37.470Z,100620.44
2022-12-25T08:28:41.959Z,100613.53
2022-12-25T08:30:44.761Z,100620.47
2022-12-25T08:32:47.596Z,100618.81
2022-12-25T08:34:50.407Z,100607.53
2022-12-25T08:36:53.146Z,100615.31
2022-12-25T08:39:02.627Z,100614.50
2022-12-25T08:41:06.641Z,100597.13
2022-12-25T08:43:09.486Z,100572.06
2022-12-25T08:45:13.923Z,100565.13
2022-12-25T08:47:16.813Z,100560.81
2022-12-25T08:49:19.652Z,100561.69
2022-12-25T08:51:24.746Z,100564.25
2022-12-25T08:53:27.698Z,100564.13
2022-12-25T08:55:30.487Z,100566.75
2022-12-25T08:57:33.312Z,100579.72
2022-12-25T08:59:36.153Z,100578.78
2022-12-25T09:01:40.314Z,100584.84
2022-12-25T09:03:43.490Z,100591.78
2022-12-25T09:05:46.865Z,100588.34
2022-12-25T09:07:49.665Z,100600.34
2022-12-25T09:09:52.503Z,100598.56
2022-12-25T09:11:55.571Z,100610.69
2022-12-25T09:13:58.448Z,100608.13
2022-12-25T09:16:01.463Z,100614.06
2022-12-25T09:18:05.922Z,100616.66
2022-12-25T09:20:09.291Z,100615.03
2022-12-25T09:22:12.095Z,100616.88
2022-12-25T09:24:14.872Z,100616.88
2022-12-25T09:26:19.443Z,100610.00
2022-12-25T09:28:22.711Z,100613.53
2022-12-25T09:30:25.568Z,100610.00
2022-12-25T09:32:28.343Z,100605.00
2022-12-25T09:34:32.614Z,100610.31
2022-12-25T09:36:35.439Z,100606.03
2022-12-25T09:38:38.269Z,100595.75
2022-12-25T09:40:41.215Z,100594.16
2022-12-25T09:42:45.060Z,100599.47
2022-12-25T09:44:52.337Z,100600.41
2022-12-25T09:47:00.317Z,100587.59
2022-12-25T09:49:07.741Z,100580.78
2022-12-25T09:51:16.613Z,100575.66
2022-12-25T09:53:23.770Z,100580.00
2022-12-25T09:55:30.856Z,100560.97
2022-12-25T09:57:34.242Z,100564.53
2022-12-25T09:59:37.053Z,100568.00
2022-12-25T10:01:49.102Z,100559.41
2022-12-25T10:04:07.020Z,100548.25
2022-12-25T10:06:18.932Z,100544.78
2022-12-25T10:08:35.981Z,100545.63
2022-12-25T10:10:51.807Z,100543.09
2022-12-25T10:13:02.765Z,100542.25
2022-12-25T10:15:19.194Z,100529.31
2022-12-25T10:17:33.437Z,100520.63
2022-12-25T10:19:46.257Z,100517.19
2022-12-25T10:21:55.077Z,100525.00
2022-12-25T10:24:09.271Z,100528.53
2022-12-25T10:26:16.541Z,100523.38
2022-12-25T10:28:27.571Z,100523.47
2022-12-25T10:30:32.305Z,100519.09
2022-12-25T10:32:35.138Z,100514.75
2022-12-25T10:34:41.598Z,100515.63
2022-12-25T10:36:46.518Z,100513.91
2022-12-25T10:38:50.992Z,100519.13
2022-12-25T10:41:04.805Z,100518.25
2022-12-25T10:43:13.872Z,100520.72
2022-12-25T10:45:17.324Z,100537.06
2022-12-25T10:47:25.395Z,100528.25
2022-12-25T10:49:32.058Z,100528.28
2022-12-25T10:51:37.336Z,100525.63
2022-12-25T10:53:41.876Z,100523.97
2022-12-25T10:55:55.311Z,100517.03
2022-12-25T10:57:59.042Z,100518.69
2022-12-25T11:00:01.983Z,100516.09
2022-12-25T11:02:15.046Z,100508.31
2022-12-25T11:04:22.546Z,100506.59
2022-12-25T11:06:32.993Z,100499.81
2022-12-25T11:08:36.143Z,100501.59
2022-12-25T11:10:42.090Z,100507.63
2022-12-25T11:12:50.505Z,100505.88
2022-12-25T11:14:56.121Z,100511.09
2022-12-25T11:17:08.405Z,100515.50
2022-12-25T11:19:25.716Z,100515.50
2022-12-25T11:21:30.735Z,100515.47
2022-12-25T11:23:33.870Z,100509.50
2022-12-25T11:25:36.708Z,100505.03
2022-12-25T11:27:39.489Z,100497.22
2022-12-25T11:29:47.773Z,100499.00
2022-12-25T11:31:52.248Z,100498.16
2022-12-25T11:34:00.057Z,100478.22
2022-12-25T11:36:10.259Z,100474.81
2022-12-25T11:38:13.091Z,100473.97
2022-12-25T11:40:16.762Z,100473.09
2022-12-25T11:42:23.362Z,100467.06
2022-12-25T11:44:35.352Z,100473.22
2022-12-25T11:46:45.846Z,100481.06
2022-12-25T11:48:56.024Z,100472.38
2022-12-25T11:51:02.278Z,100468.88
2022-12-25T11:53:08.387Z,100447.16
2022-12-25T11:55:19.464Z,100438.50
2022-12-25T11:57:24.582Z,100423.75
2022-12-25T11:59:33.935Z,100423.75
2022-12-25T12:01:44.580Z,100416.88
2022-12-25T12:03:47.518Z,100414.28
2022-12-25T12:05:54.202Z,100412.56
2022-12-25T12:08:00.856Z,100416.06
2022-12-25T12:10:11.394Z,100411.69
2022-12-25T12:12:21.548Z,100417.81
2022-12-25T12:14:40.114Z,100417.84
2022-12-25T12:16:44.403Z,100421.28
2022-12-25T12:18:50.554Z,100410.00
2022-12-25T12:21:05.832Z,100408.25
2022-12-25T12:23:16.664Z,100413.53
2022-12-25T12:25:20.150Z,100421.31
2022-12-25T12:27:27.709Z,100417.81
2022-12-25T12:29:36.251Z,100427.41
2022-12-25T12:31:40.703Z,100428.28
2022-12-25T12:33:51.645Z,100429.19
2022-12-25T12:35:54.832Z,100427.47
2022-12-25T12:38:01.505Z,100424.09
2022-12-25T12:40:07.645Z,100426.66
2022-12-25T12:42:15.752Z,100420.59
2022-12-25T12:44:19.306Z,100424.06
2022-12-25T12:46:30.691Z,100424.94
2022-12-25T12:48:40.637Z,100423.22
2022-12-25T12:50:44.897Z,100425.81
2022-12-25T12:52:48.118Z,100422.31
2022-12-25T12:54:57.665Z,100411.91
2022-12-25T12:57:02.155Z,100404.06
2022-12-25T12:59:05.003Z,100401.41
2022-12-25T13:01:15.440Z,100404.94
2022-12-25T13:03:39.512Z,100406.66
2022-12-25T13:05:48.031Z,100400.56
2022-12-25T13:08:00.459Z,100395.34
2022-12-25T13:10:14.407Z,100394.50
2022-12-25T13:12:18.496Z,100379.75
2022-12-25T13:14:24.013Z,100381.50
2022-12-25T13:16:30.953Z,100382.38
2022-12-25T13:18:34.698Z,100378.06
2022-12-25T13:20:46.280Z,100378.06
2022-12-25T13:22:53.146Z,100375.44
2022-12-25T13:24:58.310Z,100381.53
2022-12-25T13:27:03.326Z,100386.75
2022-12-25T13:29:11.288Z,100389.38
2022-12-25T13:31:18.941Z,100386.75
2022-12-25T13:33:21.836Z,100383.28
2022-12-25T13:35:25.054Z,100372.00
2022-12-25T13:37:31.479Z,100369.38
2022-12-25T13:39:37.583Z,100371.13
2022-12-25T13:42:04.668Z,100356.34
2022-12-25T13:44:17.156Z,100356.34
2022-12-25T13:46:26.961Z,100349.34
2022-12-25T13:48:31.368Z,100328.47
2022-12-25T13:50:35.809Z,100327.63
2022-12-25T13:52:39.406Z,100333.69
2022-12-25T13:54:57.523Z,100347.63
2022-12-25T13:57:00.359Z,100358.06
2022-12-25T13:59:04.797Z,100359.78
2022-12-25T14:01:08.090Z,100349.34
2022-12-25T14:03:19.222Z,100348.50
2022-12-25T14:05:27.746Z,100342.41
2022-12-25T14:07:30.579Z,100345.03
2022-12-25T14:09:33.796Z,100348.50
2022-12-25T14:11:39.480Z,100347.59
2022-12-25T14:13:45.163Z,100356.34
2022-12-25T14:15:49.605Z,100351.09
2022-12-25T14:17:53.426Z,100368.50
2022-12-25T14:20:08.016Z,100363.31
2022-12-25T14:22:15.038Z,100357.19
2022-12-25T14:24:26.806Z,100358.09
2022-12-25T14:26:31.735Z,100356.34
2022-12-25T14:28:37.674Z,100357.19
2022-12-25T14:30:43.523Z,100357.19
2022-12-25T14:32:51.689Z,100358.94
2022-12-25T14:34:57.929Z,100366.78
2022-12-25T14:37:01.500Z,100367.63
2022-12-25T14:39:07.628Z,100371.09
2022-12-25T14:41:25.904Z,100376.31
2022-12-25T14:43:30.315Z,100370.25
2022-12-25T14:45:36.113Z,100361.50
2022-12-25T14:47:51.812Z,100377.22
2022-12-25T14:49:54.928Z,100379.78
2022-12-25T14:51:57.804Z,100376.31
2022-12-25T14:54:03.835Z,100377.16
2022-12-25T14:56:09.251Z,100370.22
2022-12-25T14:58:21.619Z,100370.19
2022-12-25T15:00:28.136Z,100365.88
2022-12-25T15:02:41.308Z,100371.94
2022-12-25T15:04:44.634Z,100371.03
2022-12-25T15:06:55.302Z,100360.59
2022-12-25T15:08:59.400Z,100366.66
2022-12-25T15:11:03.540Z,100358.81
2022-12-25T15:13:07.067Z,100364.91
2022-12-25T15:15:10.961Z,100370.09
2022-12-25T15:17:26.297Z,100368.38
2022-12-25T15:19:36.869Z,100369.25
2022-12-25T15:21:40.439Z,100368.38
2022-12-25T15:23:43.416Z,100371.00
2022-12-25T15:25:47.328Z,100357.94
2022-12-25T15:27:50.310Z,100355.28
2022-12-25T15:30:09.809Z,100357.88
2022-12-25T15:32:17.704Z,100368.31
2022-12-25T15:34:21.816Z,100360.47
2022-12-25T15:36:26.548Z,100354.38
2022-12-25T15:38:36.315Z,100356.94
2022-12-25T15:40:39.510Z,100364.75
2022-12-25T15:42:44.793Z,100362.13
2022-12-25T15:44:48.073Z,100369.09
2022-12-25T15:46:51.306Z,100382.97
2022-12-25T15:48:54.133Z,100371.69
2022-12-25T15:51:01.135Z,100380.38
2022-12-25T15:53:05.272Z,100389.13
2022-12-25T15:55:08.952Z,100388.19
2022-12-25T15:57:18.759Z,100394.31
2022-12-25T15:59:22.523Z,100405.56
2022-12-25T16:01:25.406Z,100400.28
2022-12-25T16:03:28.360Z,100402.88
2022-12-25T16:05:31.194Z,100416.81
2022-12-25T16:07:34.019Z,100408.09
2022-12-25T16:09:38.391Z,100406.38
2022-12-25T16:11:41.942Z,100398.56
2022-12-25T16:13:45.836Z,100393.31
2022-12-25T16:15:48.932Z,100400.25
2022-12-25T16:17:51.814Z,100388.97
2022-12-25T16:19:54.646Z,100396.78
2022-12-25T16:21:57.598Z,100392.41
2022-12-25T16:24:00.394Z,100383.69
2022-12-25T16:26:04.597Z,100381.13
2022-12-25T16:28:10.202Z,100375.00
2022-12-25T16:30:15.800Z,100371.47
2022-12-25T16:32:18.544Z,100362.78
2022-12-25T16:34:21.354Z,100354.94
2022-12-25T16:36:29.485Z,100347.91
2022-12-25T16:38:32.432Z,100337.47
2022-12-25T16:40:37.937Z,100346.97
2022-12-25T16:42:42.094Z,100357.41
2022-12-25T16:44:47.348Z,100363.50
2022-12-25T16:46:50.310Z,100377.38
2022-12-25T16:48:53.204Z,100384.34
2022-12-25T16:50:56.337Z,100388.72
2022-12-25T16:52:59.167Z,100373.94
2022-12-25T16:55:03.119Z,100378.31
2022-12-25T16:57:05.964Z,100384.38
2022-12-25T16:59:10.177Z,100380.00
2022-12-25T17:01:15.805Z,100375.63
2022-12-25T17:03:19.017Z,100371.31
2022-12-25T17:05:21.860Z,100379.97
2022-12-25T17:07:24.732Z,100386.03
2022-12-25T17:09:27.560Z,100392.09
2022-12-25T17:11:31.043Z,100397.28
2022-12-25T17:13:33.869Z,100395.53
2022-12-25T17:15:38.006Z,100398.97
2022-12-25T17:17:41.631Z,100400.69
2022-12-25T17:19:44.484Z,100404.13
2022-12-25T17:21:47.927Z,100400.63
2022-12-25T17:23:58.065Z,100398.03
2022-12-25T17:26:04.938Z,100402.34
2022-12-25T17:28:07.750Z,100397.97
2022-12-25T17:30:11.551Z,100394.44
2022-12-25T17:32:15.948Z,100392.72
2022-12-25T17:34:19.006Z,100384.00
2022-12-25T17:36:23.052Z,100385.75
2022-12-25T17:38:25.874Z,100390.09
2022-12-25T17:40:29.802Z,100394.41
2022-12-25T17:42:32.935Z,100380.53
2022-12-25T17:44:35.864Z,100387.41
2022-12-25T17:46:38.893Z,100383.94
2022-12-25T17:48:43.496Z,100381.34
2022-12-25T17:50:46.469Z,100383.94
2022-12-25T17:52:49.306Z,100379.53
2022-12-25T17:54:52.172Z,100377.78
2022-12-25T17:56:55.092Z,100378.69
2022-12-25T17:58:59.963Z,100385.56
2022-12-25T18:01:06.708Z,100390.78
2022-12-25T18:03:11.806Z,100384.72
2022-12-25T18:05:16.685Z,100385.59
2022-12-25T18:07:19.459Z,100395.97
2022-12-25T18:09:22.287Z,100393.41
2022-12-25T18:11:29.122Z,100395.16
2022-12-25T18:13:32.610Z,100399.50
2022-12-25T18:15:40.312Z,100402.09
2022-12-25T18:17:43.269Z,100401.22
2022-12-25T18:19:46.212Z,100397.72
2022-12-25T18:21:51.138Z,100395.97
2022-12-25T18:23:53.836Z,100394.28
2022-12-25T18:25:57.040Z,100402.06
2022-12-25T18:28:02.338Z,100405.53
2022-12-25T18:30:06.700Z,100405.59
2022-12-25T18:32:09.682Z,100389.16
2022-12-25T18:34:12.511Z,100395.06
2022-12-25T18:36:17.541Z,100395.19
2022-12-25T18:38:21.727Z,100398.59
2022-12-25T18:40:24.754Z,100399.34
2022-12-25T18:42:39.664Z,100407.25
2022-12-25T18:44:42.621Z,100401.13
2022-12-25T18:46:45.390Z,100405.50
2022-12-25T18:48:48.131Z,100401.97
2022-12-25T18:50:57.071Z,100398.56
2022-12-25T18:53:00.090Z,100405.47
2022-12-25T18:55:04.699Z,100407.25
2022-12-25T18:57:07.559Z,100398.53
2022-12-25T18:59:10.404Z,100391.63
2022-12-25T19:01:16.025Z,100398.56
2022-12-25T19:03:19.061Z,100403.72
2022-12-25T19:05:21.857Z,100412.31
2022-12-25T19:07:24.841Z,100421.03
2022-12-25T19:09:27.674Z,100423.56
2022-12-25T19:11:31.796Z,100433.16
2022-12-25T19:13:34.751Z,100425.41
2022-12-25T19:15:42.239Z,100412.50
2022-12-25T19:17:45.002Z,100390.88
2022-12-25T19:19:48.092Z,100387.38
2022-12-25T19:21:53.207Z,100395.13
2022-12-25T19:23:57.052Z,100389.94
2022-12-25T19:25:59.873Z,100388.22
2022-12-25T19:28:04.043Z,100374.41
2022-12-25T19:30:08.443Z,100377.88
2022-12-25T19:32:11.471Z,100379.56
2022-12-25T19:34:14.360Z,100364.91
2022-12-25T19:36:17.524Z,100374.41
2022-12-25T19:38:20.485Z,100371.78
2022-12-25T19:40:23.481Z,100376.22
2022-12-25T19:42:26.700Z,100375.31
2022-12-25T19:44:30.867Z,100372.72
2022-12-25T19:46:36.310Z,100371.81
2022-12-25T19:48:39.035Z,100365.72
2022-12-25T19:50:43.547Z,100359.59
2022-12-25T19:52:46.347Z,100360.53
2022-12-25T19:54:52.172Z,100366.53
2022-12-25T19:56:54.925Z,100376.13
2022-12-25T19:58:58.307Z,100390.00
2022-12-25T20:01:05.983Z,100399.50
2022-12-25T20:03:08.968Z,100405.59
2022-12-25T20:05:11.827Z,100414.34
2022-12-25T20:07:14.747Z,100406.56
2022-12-25T20:09:21.341Z,100409.22
2022-12-25T20:11:27.919Z,100418.84
2022-12-25T20:13:30.707Z,100418.00
2022-12-25T20:15:33.441Z,100400.59
2022-12-25T20:17:37.670Z,100402.41
2022-12-25T20:19:40.586Z,100405.91
2022-12-25T20:21:43.382Z,100405.88
2022-12-25T20:23:48.582Z,100402.41
2022-12-25T20:25:52.520Z,100396.34
2022-12-25T20:27:55.373Z,100392.13
2022-12-25T20:29:58.206Z,100397.34
2022-12-25T20:32:01.044Z,100392.88
2022-12-25T20:34:08.247Z,100400.69
2022-12-25T20:36:11.465Z,100402.41
2022-12-25T20:38:14.328Z,100411.16
2022-12-25T20:40:17.282Z,100413.69
2022-12-25T20:42:20.334Z,100420.78
2022-12-25T20:44:23.168Z,100424.13
2022-12-25T20:46:26.466Z,100433.75
2022-12-25T20:48:29.552Z,100428.44
2022-12-25T20:50:33.704Z,100432.72
2022-12-25T20:52:36.529Z,100447.41
2022-12-25T20:54:39.409Z,100438.78
2022-12-25T20:56:42.201Z,100437.97
2022-12-25T20:58:45.209Z,100439.63
2022-12-25T21:00:47.957Z,100436.94
2022-12-25T21:02:50.942Z,100438.66
2022-12-25T21:04:54.412Z,100444.69
2022-12-25T21:06:58.529Z,100434.25
2022-12-25T21:09:01.367Z,100440.25
2022-12-25T21:11:05.219Z,100444.56
2022-12-25T21:13:08.009Z,100456.56
2022-12-25T21:15:15.431Z,100462.69
2022-12-25T21:17:18.752Z,100470.38
2022-12-25T21:19:21.544Z,100470.50
2022-12-25T21:21:24.359Z,100460.13
2022-12-25T21:23:29.901Z,100456.63
2022-12-25T21:25:32.738Z,100457.56
2022-12-25T21:27:35.564Z,100450.56
2022-12-25T21:29:38.641Z,100450.56
2022-12-25T21:31:55.402Z,100454.00
2022-12-25T21:33:59.306Z,100453.19
2022-12-25T21:36:07.067Z,100458.50
2022-12-25T21:38:10.136Z,100462.72
2022-12-25T21:40:16.643Z,100462.72
2022-12-25T21:42:19.698Z,100463.59
2022-12-25T21:44:22.551Z,100453.22
2022-12-25T21:46:26.311Z,100459.38
2022-12-25T21:48:29.153Z,100460.22
2022-12-25T21:50:49.505Z,100462.78
2022-12-25T21:52:52.275Z,100461.91
2022-12-25T21:54:55.088Z,100461.06
2022-12-25T21:56:59.150Z,100462.84
2022-12-25T21:59:03.216Z,100461.06
2022-12-25T22:01:06.458Z,100470.59
2022-12-25T22:03:09.396Z,100473.19
2022-12-25T22:05:33.811Z,100474.97
2022-12-25T22:07:35.659Z,100476.63
2022-12-25T22:09:38.834Z,100485.25
2022-12-25T22:11:59.435Z,100476.59
2022-12-25T22:14:52.072Z,100478.31
2022-12-25T22:17:02.169Z,100490.44
2022-12-25T22:19:22.257Z,100483.50
2022-12-25T22:21:25.057Z,100505.19
2022-12-25T22:23:27.846Z,100498.25
2022-12-25T22:25:30.938Z,100494.84
2022-12-25T22:27:36.231Z,100492.19
2022-12-25T22:29:40.541Z,100492.22
2022-12-25T22:31:46.932Z,100494.91
2022-12-25T22:33:49.972Z,100504.44
2022-12-25T22:36:02.296Z,100498.34
2022-12-25T22:38:05.165Z,100506.94
2022-12-25T22:40:09.931Z,100505.19
2022-12-25T22:42:13.745Z,100506.03
2022-12-25T22:44:18.100Z,100502.56
2022-12-25T22:46:22.481Z,100508.53
2022-12-25T22:48:25.316Z,100509.44
2022-12-25T22:50:28.098Z,100498.97
2022-12-25T22:52:30.884Z,100505.94
2022-12-25T22:54:33.711Z,100500.75
2022-12-25T22:56:36.822Z,100502.44
2022-12-25T22:58:39.719Z,100514.59
2022-12-25T23:00:46.626Z,100509.44
2022-12-25T23:02:51.095Z,100519.84
2022-12-25T23:04:54.211Z,100513.81
2022-12-25T23:06:57.343Z,100518.16
2022-12-25T23:09:00.701Z,100528.66
2022-12-25T23:11:06.009Z,100527.00
2022-12-25T23:13:33.233Z,100521.78
2022-12-25T23:15:36.195Z,100510.53
2022-12-25T23:17:56.854Z,100516.63
2022-12-25T23:20:19.724Z,100520.97
2022-12-25T23:22:39.942Z,100528.81
2022-12-25T23:25:03.167Z,100520.06
2022-12-25T23:27:05.990Z,100522.66
2022-12-25T23:29:26.379Z,100527.06
2022-12-25T23:31:32.081Z,100517.56
2022-12-25T23:33:35.235Z,100518.47
2022-12-25T23:35:39.335Z,100507.16
2022-12-25T23:37:42.157Z,100508.06
2022-12-25T23:39:45.202Z,100508.22
2022-12-25T23:41:50.080Z,100497.75
2022-12-25T23:43:52.900Z,100502.88
2022-12-25T23:45:55.653Z,100504.56
2022-12-25T23:47:58.470Z,100508.91
2022-12-25T23:50:01.321Z,100513.25
2022-12-25T23:52:05.892Z,100499.31
2022-12-25T23:54:08.757Z,100500.19
2022-12-25T23:56:11.601Z,100507.16
2022-12-25T23:58:14.393Z,100518.50
